Kunming, Yunnan

2:17 PM CST on July 28, 2014 (GMT +0800)
Wujiaba (ZPPP) Elev 6214 ft | 25.00 °N, 102.74 °E | Change Station

Current weather conditions updated 17 minutes ago

Scattered Clouds
Scattered Clouds
77 °F
Feels Like 77 °F
N
4
Wind Variable Wind from South

Today is forecast to be Warmer than yesterday. Showers and thunderstorms.

Today
High -- | Low -- °F
--% Chance of Precip.
Yesterday
High -- | Low -- °F
Precip. -- in
6:34 AM 7:56 PM
New Moon, 2% visible
Pressure 30.06 in
Visibility 6.2 miles
Clouds Few 2600 ft
Scattered Clouds 2600 ft
Dew Point 61 °F
Humidity 57%
Rainfall 0.00 in
Snow Depth Not available.
UV 16 out of 12
Pollen Not available.
Air Quality Not available.
Flu Activity Not available.
METAR ZPPP 280600Z 17002MPS 9999 FEW026TCU SCT026 25/16 Q1018 NOSIG

More Conditions Fewer Conditions

Pressure 30.06 in
Visibility 6.2 miles
Clouds Few 2600 ft
Scattered Clouds 2600 ft
Dew Point 61 °F
Humidity 57%
Rainfall 0.00 in
Snow Depth Not available.
UV 16 out of 12
Pollen Not available.
Air Quality Not available.
Flu Activity Not available.
METAR ZPPP 280600Z 17002MPS 9999 FEW026TCU SCT026 25/16 Q1018 NOSIG

More Conditions Fewer Conditions

10-Day Weather Forecast

Almanac

Astronomy

Jul. 28, 2014 Rise Set
Actual Time 6:34 AM CST 7:56 PM CST
Civil Twilight 6:09 AM CST 8:21 PM CST
Nautical Twilight 5:40 AM CST 8:50 PM CST
Astronomical Twilight 5:09 AM CST 9:21 PM CST
Moon 7:34 AM CST 8:37 PM CST
Length of Visible Light 14h 11m
Length of Day
13h 21m
Tomorrow will be 1m 0s shorter.
New Moon, 2% of the Moon is Illuminated
Today
New Moon
Aug 3
First Quarter
Aug 10
Full
Aug 17
Last Quarter
Aug 25
New

Yesterday's Extremes

Country Highs Country Lows

Community

WunderPhotos

Upload Photos

1,738,288 photos uploaded!

Nearby

Snow Depth

Not available.

Earthquake Activity

City Distance Mag. Time & Date
No recent earthquake activity has been reported nearby.
Minimum magnitude displayed is 2.5.

Coastal Water Temperatures

Place Temperature
No Stations Reporting

Nearby Weather Stations

There are no personal weather stations in this area.